x

Long Key, Fl (lonf1) Weather Station

4:00am - Mon 29th Aug 2016 All times are CDT. -4 hours from GMT.

  • Wind
    17mph, 20mph gusts
  • Sea Temp 85°f
  • Air Temp 82°f
  • Sea Pressure 1010.9mb
  • Long Key, Fl
  • Long Key, Fl

More Historic Weather Station data

Upgrade to MSW Pro to gain access to the past 30 days of data for over 8000 Wavebouys and Weather Stations around the globe.

Join Pro

Comparision Forecast

View Surf forecast
   
Mon 08/29 4:00am 17 20 mph 1010.9mb 85f 82f
3:00am 18 21 mph 1011.2mb 85f 83f
2:00am 17 18 mph 1011.8mb 85f 81f
1:00am 18 22 mph 1012.1mb 85f 82f
12:00am 17 20 mph 1012.5mb 85f 82f
Sun 08/28 11:00pm 20 23 mph 1012.7mb 86f 79f
10:00pm 16 18 mph 1012.4mb 86f 82f
9:00pm 18 21 mph 1011.7mb 86f 82f
8:00pm 21 23 mph 1011.1mb 86f 82f
7:00pm 17 21 mph 1010.7mb 86f 81f
6:00pm 18 21 mph 1010.3mb 87f 81f
5:00pm 20 23 mph 1010.4mb 87f 82f
4:00pm 23 25 mph 1010.3mb 87f 83f
3:00pm 23 26 mph 1011.1mb 87f 83f
2:00pm 28 31 mph 1011.1mb 87f 83f
1:00pm 26 29 mph 1011.6mb 86f 83f
12:00pm 22 24 mph 1012.2mb 86f 83f
11:00am 22 23 mph 1011.9mb 86f 84f
10:00am 23 25 mph 1011.9mb 86f 83f
9:00am 16 18 mph 1011.5mb 85f 83f
8:00am 20 23 mph 1011.3mb 85f 83f
7:00am 20 23 mph 1010.6mb 86f 84f
6:00am 21 24 mph 1010.6mb 86f 84f
5:00am 20 23 mph 1010.6mb 86f 84f
4:00am 22 24 mph 1010.4mb 86f 85f
3:00am 17 21 mph 1010.9mb 86f 85f
2:00am 20 22 mph 1011.4mb 87f 84f
1:00am 20 22 mph 1011.4mb 87f 85f
12:00am 18 21 mph 1011.9mb 87f 85f
Sat 08/27 11:00pm 20 23 mph 1012.5mb 87f 86f
10:00pm 16 17 mph 1012mb 87f 85f
9:00pm 17 21 mph 1011.8mb 88f 86f
8:00pm 14 16 mph 1011.4mb 88f 86f
7:00pm 13 14 mph 1011.4mb 88f 86f
6:00pm 14 16 mph 1011.3mb 88f 86f
5:00pm 17 20 mph 1011.6mb 88f 86f
4:00pm 17 20 mph 1010.7mb 88f 84f
3:00pm 13 15 mph 1011.8mb 88f 82f
2:00pm 30 33 mph 1012.9mb 88f 82f
1:00pm 16 18 mph 1012.9mb 88f 85f
12:00pm 13 15 mph 1013.3mb 88f 85f
11:00am 15 16 mph 1013.1mb 88f 83f
10:00am 20 22 mph 1012.9mb 88f 85f
9:00am 13 14 mph 1012.8mb 88f 85f
8:00am 13 14 mph 1012.3mb 88f 85f
7:00am 13 18 mph 1012.1mb 88f 85f
6:00am 10 13 mph 1011.9mb 88f 85f
5:00am 15 17 mph 1011.4mb 88f 85f
4:00am 11 14 mph 1011.6mb 88f 83f
3:00am 16 17 mph 1012.3mb 88f 85f
2:00am 17 21 mph 1012.5mb 88f 84f
1:00am 15 17 mph 1013.4mb 89f 84f
12:00am 9 10 mph 1013.5mb 89f 84f
Fri 08/26 11:00pm 15 17 mph 1013.9mb 89f 84f
10:00pm 23 26 mph 1013.8mb 90f 86f
9:00pm 13 15 mph 1013.2mb 90f 86f
8:00pm 15 17 mph 1013mb 90f 86f
7:00pm 15 16 mph 1012.3mb 90f 86f
6:00pm 17 20 mph 1011.9mb 90f 86f
5:00pm 13 15 mph 1011.7mb 90f 87f
4:00pm 15 17 mph 1012.4mb 90f 87f
3:00pm 14 16 mph 1012.6mb 90f 87f
2:00pm 15 16 mph 1013.2mb 89f 87f
1:00pm 14 16 mph 1013.5mb 89f 86f
12:00pm 13 15 mph 1013.9mb 88f 85f
11:00am 13 15 mph 1014.4mb 88f 84f
10:00am 6 8 mph 1014.3mb 88f 84f
9:00am 8 9 mph 1014.2mb 88f 84f
8:00am 9 10 mph 1014.6mb 88f 83f
7:00am 8 9 mph 1013.4mb 88f 83f
6:00am 9 10 mph 1013.5mb 88f 82f
5:00am 10 11 mph 1013.9mb 88f 82f
4:00am 6 8 mph 1013.8mb 89f 81f
3:00am 14 16 mph 1013.3mb 89f 84f
2:00am 14 16 mph 1013.8mb 89f 85f
1:00am 13 14 mph 1014mb 89f 85f
12:00am 13 14 mph 1013.4mb 89f 85f
Thu 08/25 11:00pm 18 22 mph 1013.8mb 89f 86f
10:00pm 17 18 mph 1013.8mb 90f 84f
9:00pm 18 20 mph 1013.7mb 90f 83f
8:00pm 7 8 mph 1014mb 90f 82f
7:00pm 13 15 mph 1013.8mb 90f 85f
6:00pm 17 21 mph 1013.4mb 91f 81f
5:00pm 9 11 mph 1012.9mb 91f 86f
4:00pm 5 7 mph 1013.6mb 90f 86f
3:00pm 9 11 mph 1014.2mb 90f 87f
2:00pm 9 11 mph 1014.6mb 89f 87f
1:00pm 3 5 mph 1015.1mb 89f 86f
12:00pm 6 7 mph 1015.3mb 88f 85f
11:00am 5 7 mph 1015.2mb 88f 85f
10:00am 3 6 mph 1014.9mb 88f 85f